sensor_id;sensor_type;location;lat;lon;timestamp;P1;durP1;ratioP1;P2;durP2;ratioP2
32748;SDS011;19119;52.474;13.710;2023-07-13T00:01:14;5.75;;;3.08;;
32748;SDS011;19119;52.474;13.710;2023-07-13T00:03:40;4.72;;;3.45;;
32748;SDS011;19119;52.474;13.710;2023-07-13T00:06:06;4.43;;;2.75;;
32748;SDS011;19119;52.474;13.710;2023-07-13T00:08:33;5.72;;;3.33;;
32748;SDS011;19119;52.474;13.710;2023-07-13T00:11:00;5.20;;;2.97;;
32748;SDS011;19119;52.474;13.710;2023-07-13T00:13:26;6.55;;;3.45;;
32748;SDS011;19119;52.474;13.710;2023-07-13T00:15:52;4.97;;;2.67;;
32748;SDS011;19119;52.474;13.710;2023-07-13T00:18:19;6.95;;;3.30;;
32748;SDS011;19119;52.474;13.710;2023-07-13T00:20:45;5.88;;;3.25;;
32748;SDS011;19119;52.474;13.710;2023-07-13T00:23:11;6.43;;;3.28;;
32748;SDS011;19119;52.474;13.710;2023-07-13T00:25:36;5.18;;;3.15;;
32748;SDS011;19119;52.474;13.710;2023-07-13T00:28:02;5.00;;;3.53;;
32748;SDS011;19119;52.474;13.710;2023-07-13T00:30:28;6.03;;;3.40;;
32748;SDS011;19119;52.474;13.710;2023-07-13T00:32:53;4.97;;;3.60;;
32748;SDS011;19119;52.474;13.710;2023-07-13T00:35:21;5.43;;;3.38;;
32748;SDS011;19119;52.474;13.710;2023-07-13T00:37:46;6.30;;;3.22;;
32748;SDS011;19119;52.474;13.710;2023-07-13T00:40:12;4.43;;;3.08;;
32748;SDS011;19119;52.474;13.710;2023-07-13T00:42:39;10.63;;;3.50;;
32748;SDS011;19119;52.474;13.710;2023-07-13T00:47:36;9.15;;;3.50;;
32748;SDS011;19119;52.474;13.710;2023-07-13T00:50:02;5.80;;;2.97;;
32748;SDS011;19119;52.474;13.710;2023-07-13T00:52:37;7.78;;;3.30;;
32748;SDS011;19119;52.474;13.710;2023-07-13T00:55:05;5.25;;;3.78;;
32748;SDS011;19119;52.474;13.710;2023-07-13T00:57:32;4.95;;;3.20;;
32748;SDS011;19119;52.474;13.710;2023-07-13T00:59:59;10.85;;;3.83;;
32748;SDS011;19119;52.474;13.710;2023-07-13T01:02:31;6.15;;;4.03;;
32748;SDS011;19119;52.474;13.710;2023-07-13T01:04:58;6.18;;;3.15;;
32748;SDS011;19119;52.474;13.710;2023-07-13T01:07:24;4.82;;;3.50;;
32748;SDS011;19119;52.474;13.710;2023-07-13T01:09:50;5.82;;;3.47;;
32748;SDS011;19119;52.474;13.710;2023-07-13T01:12:15;5.30;;;3.45;;
32748;SDS011;19119;52.474;13.710;2023-07-13T01:14:41;6.68;;;3.67;;
32748;SDS011;19119;52.474;13.710;2023-07-13T01:17:08;5.95;;;3.22;;
32748;SDS011;19119;52.474;13.710;2023-07-13T01:19:41;5.47;;;3.20;;
32748;SDS011;19119;52.474;13.710;2023-07-13T01:22:10;6.78;;;3.65;;
32748;SDS011;19119;52.474;13.710;2023-07-13T01:27:59;4.35;;;2.90;;
32748;SDS011;19119;52.474;13.710;2023-07-13T01:30:25;4.72;;;3.20;;
32748;SDS011;19119;52.474;13.710;2023-07-13T01:32:50;8.00;;;4.22;;
32748;SDS011;19119;52.474;13.710;2023-07-13T01:35:16;6.53;;;3.58;;
32748;SDS011;19119;52.474;13.710;2023-07-13T01:37:41;6.18;;;3.45;;
32748;SDS011;19119;52.474;13.710;2023-07-13T01:40:10;5.85;;;3.50;;
32748;SDS011;19119;52.474;13.710;2023-07-13T01:42:37;7.05;;;3.88;;
32748;SDS011;19119;52.474;13.710;2023-07-13T01:45:03;6.70;;;3.63;;
32748;SDS011;19119;52.474;13.710;2023-07-13T01:47:29;6.35;;;3.53;;
32748;SDS011;19119;52.474;13.710;2023-07-13T01:49:55;4.88;;;3.72;;
32748;SDS011;19119;52.474;13.710;2023-07-13T01:52:21;7.32;;;4.05;;
32748;SDS011;19119;52.474;13.710;2023-07-13T01:54:47;4.82;;;3.40;;
32748;SDS011;19119;52.474;13.710;2023-07-13T01:57:13;5.78;;;3.97;;
32748;SDS011;19119;52.474;13.710;2023-07-13T01:59:38;6.53;;;3.80;;
32748;SDS011;19119;52.474;13.710;2023-07-13T02:02:04;5.63;;;3.40;;
32748;SDS011;19119;52.474;13.710;2023-07-13T02:04:30;5.85;;;3.92;;
32748;SDS011;19119;52.474;13.710;2023-07-13T02:06:55;7.53;;;4.15;;
32748;SDS011;19119;52.474;13.710;2023-07-13T02:09:21;5.13;;;4.03;;
32748;SDS011;19119;52.474;13.710;2023-07-13T02:11:46;6.32;;;3.95;;
32748;SDS011;19119;52.474;13.710;2023-07-13T02:14:13;7.60;;;3.85;;
32748;SDS011;19119;52.474;13.710;2023-07-13T02:16:40;6.18;;;3.95;;
32748;SDS011;19119;52.474;13.710;2023-07-13T02:19:06;6.57;;;3.85;;
32748;SDS011;19119;52.474;13.710;2023-07-13T02:21:32;5.07;;;3.85;;
32748;SDS011;19119;52.474;13.710;2023-07-13T02:23:58;7.10;;;3.97;;
32748;SDS011;19119;52.474;13.710;2023-07-13T02:26:24;4.75;;;4.28;;
32748;SDS011;19119;52.474;13.710;2023-07-13T02:28:50;8.35;;;4.05;;
32748;SDS011;19119;52.474;13.710;2023-07-13T02:31:16;7.30;;;3.85;;
32748;SDS011;19119;52.474;13.710;2023-07-13T02:33:42;5.10;;;3.78;;
32748;SDS011;19119;52.474;13.710;2023-07-13T02:36:09;6.95;;;3.78;;
32748;SDS011;19119;52.474;13.710;2023-07-13T02:38:34;8.35;;;4.00;;
32748;SDS011;19119;52.474;13.710;2023-07-13T02:41:01;6.78;;;3.90;;
32748;SDS011;19119;52.474;13.710;2023-07-13T02:43:27;9.10;;;4.60;;
32748;SDS011;19119;52.474;13.710;2023-07-13T02:45:53;6.13;;;3.55;;
32748;SDS011;19119;52.474;13.710;2023-07-13T02:48:18;5.50;;;4.07;;
32748;SDS011;19119;52.474;13.710;2023-07-13T02:50:44;6.03;;;3.80;;
32748;SDS011;19119;52.474;13.710;2023-07-13T02:53:10;7.03;;;4.57;;
32748;SDS011;19119;52.474;13.710;2023-07-13T02:55:36;5.50;;;3.83;;
32748;SDS011;19119;52.474;13.710;2023-07-13T02:58:01;7.20;;;4.75;;
32748;SDS011;19119;52.474;13.710;2023-07-13T03:00:27;10.13;;;4.40;;
32748;SDS011;19119;52.474;13.710;2023-07-13T03:02:53;7.50;;;3.92;;
32748;SDS011;19119;52.474;13.710;2023-07-13T03:05:21;5.63;;;4.55;;
32748;SDS011;19119;52.474;13.710;2023-07-13T03:07:47;6.88;;;4.03;;
32748;SDS011;19119;52.474;13.710;2023-07-13T03:10:13;7.35;;;4.38;;
32748;SDS011;19119;52.474;13.710;2023-07-13T03:12:38;8.52;;;4.20;;
32748;SDS011;19119;52.474;13.710;2023-07-13T03:15:04;7.55;;;4.30;;
32748;SDS011;19119;52.474;13.710;2023-07-13T03:17:30;7.60;;;4.05;;
32748;SDS011;19119;52.474;13.710;2023-07-13T03:19:55;7.30;;;4.32;;
32748;SDS011;19119;52.474;13.710;2023-07-13T03:22:22;9.75;;;5.13;;
32748;SDS011;19119;52.474;13.710;2023-07-13T03:24:47;8.18;;;4.22;;
32748;SDS011;19119;52.474;13.710;2023-07-13T03:27:14;7.65;;;4.30;;
32748;SDS011;19119;52.474;13.710;2023-07-13T03:29:40;12.00;;;4.47;;
32748;SDS011;19119;52.474;13.710;2023-07-13T03:32:06;9.80;;;4.32;;
32748;SDS011;19119;52.474;13.710;2023-07-13T03:34:31;8.98;;;4.65;;
32748;SDS011;19119;52.474;13.710;2023-07-13T03:36:57;6.80;;;4.10;;
32748;SDS011;19119;52.474;13.710;2023-07-13T03:39:23;8.45;;;4.85;;
32748;SDS011;19119;52.474;13.710;2023-07-13T03:41:49;6.72;;;3.97;;
32748;SDS011;19119;52.474;13.710;2023-07-13T03:44:18;9.52;;;5.10;;
32748;SDS011;19119;52.474;13.710;2023-07-13T03:46:43;10.23;;;5.07;;
32748;SDS011;19119;52.474;13.710;2023-07-13T03:49:09;6.20;;;4.75;;
32748;SDS011;19119;52.474;13.710;2023-07-13T03:51:36;8.25;;;5.20;;
32748;SDS011;19119;52.474;13.710;2023-07-13T03:54:01;11.23;;;5.30;;
32748;SDS011;19119;52.474;13.710;2023-07-13T03:56:27;7.25;;;5.53;;
32748;SDS011;19119;52.474;13.710;2023-07-13T03:58:53;7.03;;;4.43;;
32748;SDS011;19119;52.474;13.710;2023-07-13T04:01:20;10.10;;;4.72;;
32748;SDS011;19119;52.474;13.710;2023-07-13T04:03:46;7.38;;;4.57;;
32748;SDS011;19119;52.474;13.710;2023-07-13T04:06:14;5.72;;;4.43;;
32748;SDS011;19119;52.474;13.710;2023-07-13T04:08:46;10.32;;;5.20;;
32748;SDS011;19119;52.474;13.710;2023-07-13T04:11:13;7.97;;;4.95;;
32748;SDS011;19119;52.474;13.710;2023-07-13T04:13:39;8.35;;;5.50;;
32748;SDS011;19119;52.474;13.710;2023-07-13T04:16:05;8.38;;;4.85;;
32748;SDS011;19119;52.474;13.710;2023-07-13T04:18:31;10.20;;;4.95;;
32748;SDS011;19119;52.474;13.710;2023-07-13T04:20:57;8.15;;;4.90;;
32748;SDS011;19119;52.474;13.710;2023-07-13T04:23:23;11.85;;;4.72;;
32748;SDS011;19119;52.474;13.710;2023-07-13T04:25:49;8.45;;;4.78;;
32748;SDS011;19119;52.474;13.710;2023-07-13T04:28:17;6.00;;;3.92;;
32748;SDS011;19119;52.474;13.710;2023-07-13T04:30:44;11.27;;;4.30;;
32748;SDS011;19119;52.474;13.710;2023-07-13T04:33:10;9.80;;;3.60;;
32748;SDS011;19119;52.474;13.710;2023-07-13T04:35:35;8.25;;;3.80;;
32748;SDS011;19119;52.474;13.710;2023-07-13T04:38:02;7.40;;;3.75;;
32748;SDS011;19119;52.474;13.710;2023-07-13T04:40:28;8.50;;;3.45;;
32748;SDS011;19119;52.474;13.710;2023-07-13T04:42:54;5.25;;;3.15;;
32748;SDS011;19119;52.474;13.710;2023-07-13T04:45:20;6.90;;;3.63;;
32748;SDS011;19119;52.474;13.710;2023-07-13T04:47:45;5.95;;;3.38;;
32748;SDS011;19119;52.474;13.710;2023-07-13T04:50:12;5.25;;;3.28;;
32748;SDS011;19119;52.474;13.710;2023-07-13T04:52:43;8.65;;;3.10;;
32748;SDS011;19119;52.474;13.710;2023-07-13T04:55:09;6.38;;;3.40;;
32748;SDS011;19119;52.474;13.710;2023-07-13T04:57:35;9.43;;;3.90;;
32748;SDS011;19119;52.474;13.710;2023-07-13T05:00:01;9.98;;;3.85;;
32748;SDS011;19119;52.474;13.710;2023-07-13T05:02:32;6.50;;;3.35;;
32748;SDS011;19119;52.474;13.710;2023-07-13T05:04:58;5.47;;;3.15;;
32748;SDS011;19119;52.474;13.710;2023-07-13T05:07:25;6.57;;;3.65;;
32748;SDS011;19119;52.474;13.710;2023-07-13T05:09:51;9.13;;;2.70;;
32748;SDS011;19119;52.474;13.710;2023-07-13T05:12:16;7.38;;;3.05;;
32748;SDS011;19119;52.474;13.710;2023-07-13T05:14:42;6.63;;;3.10;;
32748;SDS011;19119;52.474;13.710;2023-07-13T05:17:08;6.70;;;3.35;;
32748;SDS011;19119;52.474;13.710;2023-07-13T05:19:33;4.00;;;2.38;;
32748;SDS011;19119;52.474;13.710;2023-07-13T05:21:59;4.22;;;2.67;;
32748;SDS011;19119;52.474;13.710;2023-07-13T05:24:25;7.85;;;2.92;;
32748;SDS011;19119;52.474;13.710;2023-07-13T05:26:50;6.07;;;2.40;;
32748;SDS011;19119;52.474;13.710;2023-07-13T05:29:16;6.07;;;3.10;;
32748;SDS011;19119;52.474;13.710;2023-07-13T05:31:41;7.88;;;3.10;;
32748;SDS011;19119;52.474;13.710;2023-07-13T05:34:07;12.57;;;2.97;;
32748;SDS011;19119;52.474;13.710;2023-07-13T05:36:32;10.90;;;3.63;;
32748;SDS011;19119;52.474;13.710;2023-07-13T05:38:59;10.18;;;3.55;;
32748;SDS011;19119;52.474;13.710;2023-07-13T05:41:24;4.65;;;3.03;;
32748;SDS011;19119;52.474;13.710;2023-07-13T05:43:50;9.23;;;3.25;;
32748;SDS011;19119;52.474;13.710;2023-07-13T05:46:15;5.30;;;3.00;;
32748;SDS011;19119;52.474;13.710;2023-07-13T05:48:41;6.53;;;3.50;;
32748;SDS011;19119;52.474;13.710;2023-07-13T05:51:07;4.53;;;3.35;;
32748;SDS011;19119;52.474;13.710;2023-07-13T05:53:33;7.65;;;3.88;;
32748;SDS011;19119;52.474;13.710;2023-07-13T05:55:59;8.77;;;3.72;;
32748;SDS011;19119;52.474;13.710;2023-07-13T05:58:25;7.78;;;3.10;;
32748;SDS011;19119;52.474;13.710;2023-07-13T06:00:58;6.25;;;2.90;;
32748;SDS011;19119;52.474;13.710;2023-07-13T06:03:25;7.28;;;2.92;;
32748;SDS011;19119;52.474;13.710;2023-07-13T06:05:50;6.30;;;2.65;;
32748;SDS011;19119;52.474;13.710;2023-07-13T06:08:16;4.03;;;2.40;;
32748;SDS011;19119;52.474;13.710;2023-07-13T06:10:41;6.72;;;2.80;;
32748;SDS011;19119;52.474;13.710;2023-07-13T06:13:07;7.20;;;2.92;;
32748;SDS011;19119;52.474;13.710;2023-07-13T06:15:32;6.50;;;2.88;;
32748;SDS011;19119;52.474;13.710;2023-07-13T06:17:58;14.20;;;2.63;;
32748;SDS011;19119;52.474;13.710;2023-07-13T06:20:24;5.15;;;2.45;;
32748;SDS011;19119;52.474;13.710;2023-07-13T06:22:49;7.22;;;2.70;;
32748;SDS011;19119;52.474;13.710;2023-07-13T06:25:15;5.47;;;2.65;;
32748;SDS011;19119;52.474;13.710;2023-07-13T06:27:40;4.00;;;2.00;;
32748;SDS011;19119;52.474;13.710;2023-07-13T06:30:06;6.03;;;2.40;;
32748;SDS011;19119;52.474;13.710;2023-07-13T06:32:32;5.43;;;2.28;;
32748;SDS011;19119;52.474;13.710;2023-07-13T06:34:57;5.97;;;2.20;;
32748;SDS011;19119;52.474;13.710;2023-07-13T06:37:23;5.03;;;1.70;;
32748;SDS011;19119;52.474;13.710;2023-07-13T06:39:48;6.50;;;2.47;;
32748;SDS011;19119;52.474;13.710;2023-07-13T06:42:15;7.25;;;2.35;;
32748;SDS011;19119;52.474;13.710;2023-07-13T06:44:41;6.38;;;2.30;;
32748;SDS011;19119;52.474;13.710;2023-07-13T06:47:07;5.38;;;2.53;;
32748;SDS011;19119;52.474;13.710;2023-07-13T06:49:32;6.25;;;2.08;;
32748;SDS011;19119;52.474;13.710;2023-07-13T06:51:58;3.33;;;1.98;;
32748;SDS011;19119;52.474;13.710;2023-07-13T06:54:23;6.82;;;1.90;;
32748;SDS011;19119;52.474;13.710;2023-07-13T06:56:49;4.38;;;2.13;;
32748;SDS011;19119;52.474;13.710;2023-07-13T06:59:14;5.35;;;1.90;;
32748;SDS011;19119;52.474;13.710;2023-07-13T07:01:40;4.10;;;2.20;;
32748;SDS011;19119;52.474;13.710;2023-07-13T07:04:05;8.52;;;2.05;;
32748;SDS011;19119;52.474;13.710;2023-07-13T07:06:31;4.32;;;1.88;;
32748;SDS011;19119;52.474;13.710;2023-07-13T07:08:56;5.85;;;1.50;;
32748;SDS011;19119;52.474;13.710;2023-07-13T07:11:23;6.28;;;1.83;;
32748;SDS011;19119;52.474;13.710;2023-07-13T07:13:50;5.50;;;2.63;;
32748;SDS011;19119;52.474;13.710;2023-07-13T07:16:17;6.07;;;1.83;;
32748;SDS011;19119;52.474;13.710;2023-07-13T07:18:43;4.20;;;1.85;;
32748;SDS011;19119;52.474;13.710;2023-07-13T07:21:09;7.10;;;1.88;;
32748;SDS011;19119;52.474;13.710;2023-07-13T07:23:35;4.10;;;1.67;;
32748;SDS011;19119;52.474;13.710;2023-07-13T07:26:01;4.03;;;1.63;;
32748;SDS011;19119;52.474;13.710;2023-07-13T07:28:27;6.45;;;1.65;;
32748;SDS011;19119;52.474;13.710;2023-07-13T07:30:56;6.80;;;1.58;;
32748;SDS011;19119;52.474;13.710;2023-07-13T07:33:23;4.15;;;2.00;;
32748;SDS011;19119;52.474;13.710;2023-07-13T07:35:49;2.30;;;1.27;;
32748;SDS011;19119;52.474;13.710;2023-07-13T07:38:15;3.15;;;1.60;;
32748;SDS011;19119;52.474;13.710;2023-07-13T07:40:41;2.78;;;1.48;;
32748;SDS011;19119;52.474;13.710;2023-07-13T07:43:08;4.47;;;1.45;;
32748;SDS011;19119;52.474;13.710;2023-07-13T07:45:35;7.35;;;1.67;;
32748;SDS011;19119;52.474;13.710;2023-07-13T07:48:02;3.85;;;1.90;;
32748;SDS011;19119;52.474;13.710;2023-07-13T07:50:28;7.65;;;1.60;;
32748;SDS011;19119;52.474;13.710;2023-07-13T07:52:54;3.13;;;1.38;;
32748;SDS011;19119;52.474;13.710;2023-07-13T07:55:23;3.47;;;1.45;;
32748;SDS011;19119;52.474;13.710;2023-07-13T07:57:51;5.47;;;1.92;;
32748;SDS011;19119;52.474;13.710;2023-07-13T08:00:16;7.78;;;2.67;;
32748;SDS011;19119;52.474;13.710;2023-07-13T08:02:43;5.18;;;1.80;;
32748;SDS011;19119;52.474;13.710;2023-07-13T08:05:09;6.07;;;1.50;;
32748;SDS011;19119;52.474;13.710;2023-07-13T08:07:36;3.97;;;1.77;;
32748;SDS011;19119;52.474;13.710;2023-07-13T08:10:02;2.95;;;1.40;;
32748;SDS011;19119;52.474;13.710;2023-07-13T08:12:28;5.95;;;1.80;;
32748;SDS011;19119;52.474;13.710;2023-07-13T08:14:54;6.35;;;1.40;;
32748;SDS011;19119;52.474;13.710;2023-07-13T08:17:22;5.95;;;1.70;;
32748;SDS011;19119;52.474;13.710;2023-07-13T08:19:49;5.18;;;1.50;;
32748;SDS011;19119;52.474;13.710;2023-07-13T08:22:15;5.05;;;1.20;;
32748;SDS011;19119;52.474;13.710;2023-07-13T08:24:41;3.33;;;1.30;;
32748;SDS011;19119;52.474;13.710;2023-07-13T08:27:12;3.78;;;1.63;;
32748;SDS011;19119;52.474;13.710;2023-07-13T08:29:38;3.08;;;1.30;;
32748;SDS011;19119;52.474;13.710;2023-07-13T08:32:04;4.18;;;1.20;;
32748;SDS011;19119;52.474;13.710;2023-07-13T08:34:34;20.30;;;2.13;;
32748;SDS011;19119;52.474;13.710;2023-07-13T08:37:00;3.78;;;1.33;;
32748;SDS011;19119;52.474;13.710;2023-07-13T08:39:25;4.57;;;1.02;;
32748;SDS011;19119;52.474;13.710;2023-07-13T08:41:55;5.70;;;1.27;;
32748;SDS011;19119;52.474;13.710;2023-07-13T08:45:13;5.70;;;1.38;;
32748;SDS011;19119;52.474;13.710;2023-07-13T08:47:20;6.38;;;1.30;;
32748;SDS011;19119;52.474;13.710;2023-07-13T08:49:48;5.28;;;1.85;;
32748;SDS011;19119;52.474;13.710;2023-07-13T08:54:56;2.40;;;1.23;;
32748;SDS011;19119;52.474;13.710;2023-07-13T08:57:28;1.60;;;1.10;;
32748;SDS011;19119;52.474;13.710;2023-07-13T08:59:58;3.78;;;1.65;;
32748;SDS011;19119;52.474;13.710;2023-07-13T09:05:25;2.67;;;1.15;;
32748;SDS011;19119;52.474;13.710;2023-07-13T09:11:06;7.30;;;1.95;;
32748;SDS011;19119;52.474;13.710;2023-07-13T09:13:56;6.85;;;2.85;;
32748;SDS011;19119;52.474;13.710;2023-07-13T09:16:50;4.15;;;1.40;;
32748;SDS011;19119;52.474;13.710;2023-07-13T09:19:20;6.68;;;1.30;;
32748;SDS011;19119;52.474;13.710;2023-07-13T09:21:49;3.92;;;1.58;;
32748;SDS011;19119;52.474;13.710;2023-07-13T09:26:58;3.35;;;1.10;;
32748;SDS011;19119;52.474;13.710;2023-07-13T09:29:34;7.20;;;1.40;;
32748;SDS011;19119;52.474;13.710;2023-07-13T09:32:01;2.92;;;1.25;;
32748;SDS011;19119;52.474;13.710;2023-07-13T09:34:29;5.38;;;1.30;;
32748;SDS011;19119;52.474;13.710;2023-07-13T09:36:58;2.67;;;1.05;;
32748;SDS011;19119;52.474;13.710;2023-07-13T09:39:27;2.85;;;0.93;;
32748;SDS011;19119;52.474;13.710;2023-07-13T09:42:17;4.65;;;1.40;;
32748;SDS011;19119;52.474;13.710;2023-07-13T09:45:00;2.00;;;1.20;;
32748;SDS011;19119;52.474;13.710;2023-07-13T09:47:31;4.78;;;1.58;;
32748;SDS011;19119;52.474;13.710;2023-07-13T09:52:49;9.00;;;1.92;;
32748;SDS011;19119;52.474;13.710;2023-07-13T09:55:29;5.50;;;1.50;;
32748;SDS011;19119;52.474;13.710;2023-07-13T10:00:36;3.60;;;1.45;;
32748;SDS011;19119;52.474;13.710;2023-07-13T10:03:09;3.35;;;1.20;;
32748;SDS011;19119;52.474;13.710;2023-07-13T10:05:43;2.30;;;1.20;;
32748;SDS011;19119;52.474;13.710;2023-07-13T10:08:17;3.08;;;1.23;;
32748;SDS011;19119;52.474;13.710;2023-07-13T10:13:26;4.55;;;1.65;;
32748;SDS011;19119;52.474;13.710;2023-07-13T10:15:56;2.17;;;1.52;;
32748;SDS011;19119;52.474;13.710;2023-07-13T10:18:24;6.40;;;1.60;;
32748;SDS011;19119;52.474;13.710;2023-07-13T10:20:51;3.53;;;1.30;;
32748;SDS011;19119;52.474;13.710;2023-07-13T10:23:23;3.78;;;1.58;;
32748;SDS011;19119;52.474;13.710;2023-07-13T10:25:55;5.40;;;1.50;;
32748;SDS011;19119;52.474;13.710;2023-07-13T10:28:31;199.18;;;16.85;;
32748;SDS011;19119;52.474;13.710;2023-07-13T10:31:01;4.22;;;1.55;;
32748;SDS011;19119;52.474;13.710;2023-07-13T10:33:30;5.18;;;2.15;;
32748;SDS011;19119;52.474;13.710;2023-07-13T10:36:19;6.15;;;1.92;;
32748;SDS011;19119;52.474;13.710;2023-07-13T10:38:45;5.47;;;2.00;;
32748;SDS011;19119;52.474;13.710;2023-07-13T10:41:17;4.55;;;1.60;;
32748;SDS011;19119;52.474;13.710;2023-07-13T10:43:46;4.97;;;1.98;;
32748;SDS011;19119;52.474;13.710;2023-07-13T10:46:16;9.63;;;1.75;;
32748;SDS011;19119;52.474;13.710;2023-07-13T10:48:44;6.65;;;1.92;;
32748;SDS011;19119;52.474;13.710;2023-07-13T10:51:14;5.25;;;1.98;;
32748;SDS011;19119;52.474;13.710;2023-07-13T10:53:42;4.55;;;1.90;;
32748;SDS011;19119;52.474;13.710;2023-07-13T10:56:28;5.22;;;1.85;;
32748;SDS011;19119;52.474;13.710;2023-07-13T10:59:01;6.57;;;1.90;;
32748;SDS011;19119;52.474;13.710;2023-07-13T11:01:39;6.53;;;2.03;;
32748;SDS011;19119;52.474;13.710;2023-07-13T11:04:17;7.72;;;2.10;;
32748;SDS011;19119;52.474;13.710;2023-07-13T11:06:45;4.50;;;2.10;;
32748;SDS011;19119;52.474;13.710;2023-07-13T11:12:07;3.75;;;1.63;;
32748;SDS011;19119;52.474;13.710;2023-07-13T11:15:26;4.63;;;1.60;;
32748;SDS011;19119;52.474;13.710;2023-07-13T11:22:48;4.30;;;1.92;;
32748;SDS011;19119;52.474;13.710;2023-07-13T11:36:12;2.88;;;1.80;;
32748;SDS011;19119;52.474;13.710;2023-07-13T11:39:03;4.18;;;2.08;;
32748;SDS011;19119;52.474;13.710;2023-07-13T11:41:37;5.53;;;1.65;;
32748;SDS011;19119;52.474;13.710;2023-07-13T11:44:14;5.57;;;1.92;;
32748;SDS011;19119;52.474;13.710;2023-07-13T11:46:46;8.52;;;2.22;;
32748;SDS011;19119;52.474;13.710;2023-07-13T11:49:20;6.05;;;1.77;;
32748;SDS011;19119;52.474;13.710;2023-07-13T11:51:52;4.15;;;1.80;;
32748;SDS011;19119;52.474;13.710;2023-07-13T11:54:25;3.10;;;1.60;;
32748;SDS011;19119;52.474;13.710;2023-07-13T11:59:58;3.55;;;1.48;;
32748;SDS011;19119;52.474;13.710;2023-07-13T12:02:28;3.92;;;1.75;;
32748;SDS011;19119;52.474;13.710;2023-07-13T12:04:57;5.15;;;1.67;;
32748;SDS011;19119;52.474;13.710;2023-07-13T12:07:24;4.97;;;1.80;;
32748;SDS011;19119;52.474;13.710;2023-07-13T12:10:00;3.90;;;1.40;;
32748;SDS011;19119;52.474;13.710;2023-07-13T12:13:08;4.03;;;1.43;;
32748;SDS011;19119;52.474;13.710;2023-07-13T12:15:36;4.28;;;1.70;;
32748;SDS011;19119;52.474;13.710;2023-07-13T12:18:11;4.65;;;1.52;;
32748;SDS011;19119;52.474;13.710;2023-07-13T12:20:41;3.60;;;1.55;;
32748;SDS011;19119;52.474;13.710;2023-07-13T12:23:23;5.60;;;1.70;;
32748;SDS011;19119;52.474;13.710;2023-07-13T12:25:50;6.57;;;1.70;;
32748;SDS011;19119;52.474;13.710;2023-07-13T12:28:28;3.03;;;1.35;;
32748;SDS011;19119;52.474;13.710;2023-07-13T12:31:04;1.83;;;1.33;;
32748;SDS011;19119;52.474;13.710;2023-07-13T12:33:32;4.68;;;1.70;;
32748;SDS011;19119;52.474;13.710;2023-07-13T12:36:02;5.25;;;1.77;;
32748;SDS011;19119;52.474;13.710;2023-07-13T12:38:30;8.60;;;2.00;;
32748;SDS011;19119;52.474;13.710;2023-07-13T12:40:56;6.05;;;2.05;;
32748;SDS011;19119;52.474;13.710;2023-07-13T12:43:22;3.92;;;1.77;;
32748;SDS011;19119;52.474;13.710;2023-07-13T12:45:54;6.78;;;1.73;;
32748;SDS011;19119;52.474;13.710;2023-07-13T12:48:21;7.43;;;1.60;;
32748;SDS011;19119;52.474;13.710;2023-07-13T12:50:48;3.63;;;1.90;;
32748;SDS011;19119;52.474;13.710;2023-07-13T12:53:16;3.72;;;1.60;;
32748;SDS011;19119;52.474;13.710;2023-07-13T12:55:47;10.45;;;2.83;;
32748;SDS011;19119;52.474;13.710;2023-07-13T12:58:21;7.30;;;1.88;;
32748;SDS011;19119;52.474;13.710;2023-07-13T13:00:57;5.97;;;1.60;;
32748;SDS011;19119;52.474;13.710;2023-07-13T13:03:32;4.32;;;1.77;;
32748;SDS011;19119;52.474;13.710;2023-07-13T13:05:59;4.55;;;1.50;;
32748;SDS011;19119;52.474;13.710;2023-07-13T13:08:25;7.43;;;2.08;;
32748;SDS011;19119;52.474;13.710;2023-07-13T13:10:50;10.65;;;2.03;;
32748;SDS011;19119;52.474;13.710;2023-07-13T13:13:16;9.02;;;1.65;;
32748;SDS011;19119;52.474;13.710;2023-07-13T13:15:42;3.90;;;1.73;;
32748;SDS011;19119;52.474;13.710;2023-07-13T13:18:15;5.40;;;1.52;;
32748;SDS011;19119;52.474;13.710;2023-07-13T13:20:42;7.10;;;1.77;;
32748;SDS011;19119;52.474;13.710;2023-07-13T13:23:11;4.93;;;1.88;;
32748;SDS011;19119;52.474;13.710;2023-07-13T13:25:39;7.93;;;1.55;;
32748;SDS011;19119;52.474;13.710;2023-07-13T13:28:05;8.35;;;1.63;;
32748;SDS011;19119;52.474;13.710;2023-07-13T13:30:41;3.83;;;1.42;;
32748;SDS011;19119;52.474;13.710;2023-07-13T13:33:11;9.15;;;2.22;;
32748;SDS011;19119;52.474;13.710;2023-07-13T13:35:39;2.92;;;1.98;;
32748;SDS011;19119;52.474;13.710;2023-07-13T13:38:09;8.75;;;1.70;;
32748;SDS011;19119;52.474;13.710;2023-07-13T13:40:43;8.88;;;1.80;;
32748;SDS011;19119;52.474;13.710;2023-07-13T13:45:51;4.80;;;1.33;;
32748;SDS011;19119;52.474;13.710;2023-07-13T13:48:21;5.13;;;1.40;;
32748;SDS011;19119;52.474;13.710;2023-07-13T13:50:57;4.50;;;1.27;;
32748;SDS011;19119;52.474;13.710;2023-07-13T13:53:23;4.38;;;1.80;;
32748;SDS011;19119;52.474;13.710;2023-07-13T13:55:49;4.70;;;1.40;;
32748;SDS011;19119;52.474;13.710;2023-07-13T13:58:17;3.92;;;1.52;;
32748;SDS011;19119;52.474;13.710;2023-07-13T14:00:42;4.85;;;1.58;;
32748;SDS011;19119;52.474;13.710;2023-07-13T14:03:15;3.90;;;1.42;;
32748;SDS011;19119;52.474;13.710;2023-07-13T14:05:45;3.65;;;1.35;;
32748;SDS011;19119;52.474;13.710;2023-07-13T14:08:15;7.32;;;1.38;;
32748;SDS011;19119;52.474;13.710;2023-07-13T14:10:43;3.75;;;1.35;;
32748;SDS011;19119;52.474;13.710;2023-07-13T14:13:20;3.65;;;1.20;;
32748;SDS011;19119;52.474;13.710;2023-07-13T14:15:48;4.18;;;1.17;;
32748;SDS011;19119;52.474;13.710;2023-07-13T14:18:14;6.05;;;1.50;;
32748;SDS011;19119;52.474;13.710;2023-07-13T14:20:43;3.42;;;1.20;;
32748;SDS011;19119;52.474;13.710;2023-07-13T14:23:10;5.55;;;1.40;;
32748;SDS011;19119;52.474;13.710;2023-07-13T14:25:39;2.33;;;1.25;;
32748;SDS011;19119;52.474;13.710;2023-07-13T14:28:26;5.82;;;0.95;;
32748;SDS011;19119;52.474;13.710;2023-07-13T14:30:52;6.13;;;1.20;;
32748;SDS011;19119;52.474;13.710;2023-07-13T14:33:19;27.35;;;2.55;;
32748;SDS011;19119;52.474;13.710;2023-07-13T14:35:45;2.60;;;1.08;;
32748;SDS011;19119;52.474;13.710;2023-07-13T14:38:13;3.97;;;1.38;;
32748;SDS011;19119;52.474;13.710;2023-07-13T14:40:41;9.30;;;1.55;;
32748;SDS011;19119;52.474;13.710;2023-07-13T14:43:11;4.47;;;1.60;;
32748;SDS011;19119;52.474;13.710;2023-07-13T14:45:40;17.40;;;2.20;;
32748;SDS011;19119;52.474;13.710;2023-07-13T14:48:14;4.10;;;1.48;;
32748;SDS011;19119;52.474;13.710;2023-07-13T14:50:45;7.43;;;2.05;;
32748;SDS011;19119;52.474;13.710;2023-07-13T14:53:12;2.65;;;1.13;;
32748;SDS011;19119;52.474;13.710;2023-07-13T14:55:38;2.83;;;1.33;;
32748;SDS011;19119;52.474;13.710;2023-07-13T14:58:04;4.18;;;1.67;;
32748;SDS011;19119;52.474;13.710;2023-07-13T15:00:29;2.17;;;1.48;;
32748;SDS011;19119;52.474;13.710;2023-07-13T15:02:56;12.45;;;1.30;;
32748;SDS011;19119;52.474;13.710;2023-07-13T15:05:25;2.13;;;1.00;;
32748;SDS011;19119;52.474;13.710;2023-07-13T15:07:56;5.10;;;1.10;;
32748;SDS011;19119;52.474;13.710;2023-07-13T15:10:25;3.67;;;1.10;;
32748;SDS011;19119;52.474;13.710;2023-07-13T15:12:59;4.07;;;1.40;;
32748;SDS011;19119;52.474;13.710;2023-07-13T15:17:52;2.65;;;0.80;;
32748;SDS011;19119;52.474;13.710;2023-07-13T15:20:19;2.97;;;1.13;;
32748;SDS011;19119;52.474;13.710;2023-07-13T15:22:50;3.38;;;1.10;;
32748;SDS011;19119;52.474;13.710;2023-07-13T15:25:20;3.65;;;0.98;;
32748;SDS011;19119;52.474;13.710;2023-07-13T15:27:47;2.33;;;1.10;;
32748;SDS011;19119;52.474;13.710;2023-07-13T15:30:13;4.00;;;1.13;;
32748;SDS011;19119;52.474;13.710;2023-07-13T15:32:41;6.10;;;1.00;;